sensor_id;sensor_type;location;lat;lon;timestamp;temperature;humidity
65598;SHT31;52267;51.984;20.956;2022-12-16T00:01:33;-6.58;85.55
65598;SHT31;52267;51.984;20.956;2022-12-16T00:04:00;-6.52;86.01
65598;SHT31;52267;51.984;20.956;2022-12-16T00:06:30;-6.45;86.46
65598;SHT31;52267;51.984;20.956;2022-12-16T00:08:59;-6.37;86.90
65598;SHT31;52267;51.984;20.956;2022-12-16T00:11:27;-6.31;87.02
65598;SHT31;52267;51.984;20.956;2022-12-16T00:14:00;-6.23;87.15
65598;SHT31;52267;51.984;20.956;2022-12-16T00:16:27;-6.16;87.38
65598;SHT31;52267;51.984;20.956;2022-12-16T00:18:54;-6.10;87.60
65598;SHT31;52267;51.984;20.956;2022-12-16T00:21:21;-6.03;87.51
65598;SHT31;52267;51.984;20.956;2022-12-16T00:23:54;-5.99;87.52
65598;SHT31;52267;51.984;20.956;2022-12-16T00:26:22;-5.94;87.55
65598;SHT31;52267;51.984;20.956;2022-12-16T00:28:50;-5.90;87.66
65598;SHT31;52267;51.984;20.956;2022-12-16T00:31:17;-5.84;87.64
65598;SHT31;52267;51.984;20.956;2022-12-16T00:33:44;-5.79;87.63
65598;SHT31;52267;51.984;20.956;2022-12-16T00:36:11;-5.77;87.72
65598;SHT31;52267;51.984;20.956;2022-12-16T00:38:38;-5.75;87.72
65598;SHT31;52267;51.984;20.956;2022-12-16T00:41:08;-5.71;87.62
65598;SHT31;52267;51.984;20.956;2022-12-16T00:43:35;-5.68;87.70
65598;SHT31;52267;51.984;20.956;2022-12-16T00:46:03;-5.65;87.72
65598;SHT31;52267;51.984;20.956;2022-12-16T00:48:30;-5.61;87.74
65598;SHT31;52267;51.984;20.956;2022-12-16T00:50:57;-5.58;87.71
65598;SHT31;52267;51.984;20.956;2022-12-16T00:53:24;-5.55;87.68
65598;SHT31;52267;51.984;20.956;2022-12-16T00:55:59;-5.54;87.66
65598;SHT31;52267;51.984;20.956;2022-12-16T00:58:31;-5.52;87.68
65598;SHT31;52267;51.984;20.956;2022-12-16T01:00:58;-5.47;87.60
65598;SHT31;52267;51.984;20.956;2022-12-16T01:03:26;-5.43;87.52
65598;SHT31;52267;51.984;20.956;2022-12-16T01:05:53;-5.41;87.51
65598;SHT31;52267;51.984;20.956;2022-12-16T01:08:20;-5.39;87.50
65598;SHT31;52267;51.984;20.956;2022-12-16T01:10:51;-5.36;87.49
65598;SHT31;52267;51.984;20.956;2022-12-16T01:13:21;-5.33;87.43
65598;SHT31;52267;51.984;20.956;2022-12-16T01:15:50;-5.32;87.39
65598;SHT31;52267;51.984;20.956;2022-12-16T01:18:18;-5.35;87.45
65598;SHT31;52267;51.984;20.956;2022-12-16T01:20:45;-5.34;87.68
65598;SHT31;52267;51.984;20.956;2022-12-16T01:23:12;-5.35;87.61
65598;SHT31;52267;51.984;20.956;2022-12-16T01:25:39;-5.38;87.71
65598;SHT31;52267;51.984;20.956;2022-12-16T01:28:06;-5.39;87.75
65598;SHT31;52267;51.984;20.956;2022-12-16T01:30:33;-5.39;87.70
65598;SHT31;52267;51.984;20.956;2022-12-16T01:33:01;-5.36;87.63
65598;SHT31;52267;51.984;20.956;2022-12-16T01:35:28;-5.36;87.54
65598;SHT31;52267;51.984;20.956;2022-12-16T01:37:55;-5.37;87.56
65598;SHT31;52267;51.984;20.956;2022-12-16T01:40:22;-5.36;87.57
65598;SHT31;52267;51.984;20.956;2022-12-16T01:42:50;-5.33;87.54
65598;SHT31;52267;51.984;20.956;2022-12-16T01:47:50;-5.25;87.40
65598;SHT31;52267;51.984;20.956;2022-12-16T01:50:20;-5.22;87.31
65598;SHT31;52267;51.984;20.956;2022-12-16T01:52:48;-5.16;87.24
65598;SHT31;52267;51.984;20.956;2022-12-16T01:55:20;-5.13;87.19
65598;SHT31;52267;51.984;20.956;2022-12-16T01:57:58;-5.10;87.18
65598;SHT31;52267;51.984;20.956;2022-12-16T02:00:48;-5.04;87.10
65598;SHT31;52267;51.984;20.956;2022-12-16T02:03:16;-5.03;87.09
65598;SHT31;52267;51.984;20.956;2022-12-16T02:05:43;-5.02;87.09
65598;SHT31;52267;51.984;20.956;2022-12-16T02:08:13;-5.04;87.17
65598;SHT31;52267;51.984;20.956;2022-12-16T02:13:30;-5.10;87.37
65598;SHT31;52267;51.984;20.956;2022-12-16T02:19:28;-5.13;87.73
65598;SHT31;52267;51.984;20.956;2022-12-16T02:26:17;-5.06;87.60
65598;SHT31;52267;51.984;20.956;2022-12-16T02:35:59;-4.98;87.44
65598;SHT31;52267;51.984;20.956;2022-12-16T02:38:57;-4.92;87.39
65598;SHT31;52267;51.984;20.956;2022-12-16T02:41:32;-4.89;87.39
65598;SHT31;52267;51.984;20.956;2022-12-16T02:44:28;-4.82;87.30
65598;SHT31;52267;51.984;20.956;2022-12-16T02:47:09;-4.78;87.22
65598;SHT31;52267;51.984;20.956;2022-12-16T02:49:40;-4.70;87.15
65598;SHT31;52267;51.984;20.956;2022-12-16T02:52:16;-4.68;87.07
65598;SHT31;52267;51.984;20.956;2022-12-16T02:55:05;-4.71;87.04
65598;SHT31;52267;51.984;20.956;2022-12-16T02:57:44;-4.79;87.22
65598;SHT31;52267;51.984;20.956;2022-12-16T03:04:04;-4.74;87.09
65598;SHT31;52267;51.984;20.956;2022-12-16T03:06:43;-4.71;87.01
65598;SHT31;52267;51.984;20.956;2022-12-16T03:09:17;-4.67;86.99
65598;SHT31;52267;51.984;20.956;2022-12-16T03:11:50;-4.72;87.03
65598;SHT31;52267;51.984;20.956;2022-12-16T03:14:20;-4.75;87.13
65598;SHT31;52267;51.984;20.956;2022-12-16T03:16:50;-4.76;87.18
65598;SHT31;52267;51.984;20.956;2022-12-16T03:19:18;-4.70;87.15
65598;SHT31;52267;51.984;20.956;2022-12-16T03:21:54;-4.64;87.10
65598;SHT31;52267;51.984;20.956;2022-12-16T03:24:28;-4.54;87.02
65598;SHT31;52267;51.984;20.956;2022-12-16T03:27:06;-4.47;86.91
65598;SHT31;52267;51.984;20.956;2022-12-16T03:29:53;-4.38;86.80
65598;SHT31;52267;51.984;20.956;2022-12-16T03:35:47;-4.39;86.73
65598;SHT31;52267;51.984;20.956;2022-12-16T03:38:19;-4.46;86.83
65598;SHT31;52267;51.984;20.956;2022-12-16T03:40:47;-4.46;86.92
65598;SHT31;52267;51.984;20.956;2022-12-16T03:43:16;-4.38;86.90
65598;SHT31;52267;51.984;20.956;2022-12-16T03:45:44;-4.38;86.81
65598;SHT31;52267;51.984;20.956;2022-12-16T03:48:12;-4.32;86.82
65598;SHT31;52267;51.984;20.956;2022-12-16T03:50:40;-4.27;86.75
65598;SHT31;52267;51.984;20.956;2022-12-16T03:53:07;-4.32;86.72
65598;SHT31;52267;51.984;20.956;2022-12-16T03:55:34;-4.34;86.81
65598;SHT31;52267;51.984;20.956;2022-12-16T03:58:01;-4.34;86.80
65598;SHT31;52267;51.984;20.956;2022-12-16T04:00:28;-4.34;86.86
65598;SHT31;52267;51.984;20.956;2022-12-16T04:02:55;-4.28;86.80
65598;SHT31;52267;51.984;20.956;2022-12-16T04:05:22;-4.24;86.73
65598;SHT31;52267;51.984;20.956;2022-12-16T04:07:50;-4.17;86.68
65598;SHT31;52267;51.984;20.956;2022-12-16T04:10:17;-4.14;86.59
65598;SHT31;52267;51.984;20.956;2022-12-16T04:13:04;-4.13;86.60
65598;SHT31;52267;51.984;20.956;2022-12-16T04:15:50;-4.07;86.53
65598;SHT31;52267;51.984;20.956;2022-12-16T04:18:36;-4.06;86.49
65598;SHT31;52267;51.984;20.956;2022-12-16T04:21:23;-4.07;86.49
65598;SHT31;52267;51.984;20.956;2022-12-16T04:24:11;-4.02;86.47
65598;SHT31;52267;51.984;20.956;2022-12-16T04:26:45;-3.97;86.40
65598;SHT31;52267;51.984;20.956;2022-12-16T04:29:31;-3.95;86.34
65598;SHT31;52267;51.984;20.956;2022-12-16T04:31:59;-3.95;86.31
65598;SHT31;52267;51.984;20.956;2022-12-16T04:34:26;-3.92;86.30
65598;SHT31;52267;51.984;20.956;2022-12-16T04:37:00;-3.88;86.28
65598;SHT31;52267;51.984;20.956;2022-12-16T04:39:46;-3.87;86.19
65598;SHT31;52267;51.984;20.956;2022-12-16T04:42:32;-3.98;86.27
65598;SHT31;52267;51.984;20.956;2022-12-16T04:45:18;-3.97;86.31
65598;SHT31;52267;51.984;20.956;2022-12-16T04:48:03;-4.01;86.40
65598;SHT31;52267;51.984;20.956;2022-12-16T04:50:49;-3.91;86.33
65598;SHT31;52267;51.984;20.956;2022-12-16T04:53:38;-3.85;86.24
65598;SHT31;52267;51.984;20.956;2022-12-16T04:56:24;-3.84;86.20
65598;SHT31;52267;51.984;20.956;2022-12-16T04:59:10;-3.80;86.19
65598;SHT31;52267;51.984;20.956;2022-12-16T05:01:55;-3.79;86.20
65598;SHT31;52267;51.984;20.956;2022-12-16T05:04:41;-3.78;86.20
65598;SHT31;52267;51.984;20.956;2022-12-16T05:07:26;-3.71;86.17
65598;SHT31;52267;51.984;20.956;2022-12-16T05:10:12;-3.69;86.10
65598;SHT31;52267;51.984;20.956;2022-12-16T05:12:57;-3.67;86.05
65598;SHT31;52267;51.984;20.956;2022-12-16T05:15:43;-3.70;86.02
65598;SHT31;52267;51.984;20.956;2022-12-16T05:18:29;-3.66;86.07
65598;SHT31;52267;51.984;20.956;2022-12-16T05:21:14;-3.62;86.01
65598;SHT31;52267;51.984;20.956;2022-12-16T05:24:00;-3.60;85.97
65598;SHT31;52267;51.984;20.956;2022-12-16T05:26:46;-3.62;86.00
65598;SHT31;52267;51.984;20.956;2022-12-16T05:29:31;-3.60;86.00
65598;SHT31;52267;51.984;20.956;2022-12-16T05:32:16;-3.58;85.92
65598;SHT31;52267;51.984;20.956;2022-12-16T05:35:02;-3.60;85.96
65598;SHT31;52267;51.984;20.956;2022-12-16T05:38:02;-3.59;86.00
65598;SHT31;52267;51.984;20.956;2022-12-16T05:40:47;-3.59;85.97
65598;SHT31;52267;51.984;20.956;2022-12-16T05:43:33;-3.57;85.97
65598;SHT31;52267;51.984;20.956;2022-12-16T05:46:19;-3.54;85.92
65598;SHT31;52267;51.984;20.956;2022-12-16T05:49:04;-3.52;85.88
65598;SHT31;52267;51.984;20.956;2022-12-16T05:51:50;-3.51;85.90
65598;SHT31;52267;51.984;20.956;2022-12-16T05:54:35;-3.47;85.86
65598;SHT31;52267;51.984;20.956;2022-12-16T05:57:21;-3.43;85.80
65598;SHT31;52267;51.984;20.956;2022-12-16T06:00:07;-3.45;85.80
65598;SHT31;52267;51.984;20.956;2022-12-16T06:02:53;-3.40;85.82
65598;SHT31;52267;51.984;20.956;2022-12-16T06:05:39;-3.34;85.78
65598;SHT31;52267;51.984;20.956;2022-12-16T06:08:25;-3.28;85.70
65598;SHT31;52267;51.984;20.956;2022-12-16T06:11:11;-3.28;85.69
65598;SHT31;52267;51.984;20.956;2022-12-16T06:13:56;-3.21;85.62
65598;SHT31;52267;51.984;20.956;2022-12-16T06:16:52;-3.17;85.56
65598;SHT31;52267;51.984;20.956;2022-12-16T06:19:38;-3.16;85.51
65598;SHT31;52267;51.984;20.956;2022-12-16T06:22:24;-3.13;85.49
65598;SHT31;52267;51.984;20.956;2022-12-16T06:25:09;-3.20;85.43
65598;SHT31;52267;51.984;20.956;2022-12-16T06:27:55;-3.17;85.59
65598;SHT31;52267;51.984;20.956;2022-12-16T06:30:41;-3.14;85.50
65598;SHT31;52267;51.984;20.956;2022-12-16T06:33:26;-3.12;85.50
65598;SHT31;52267;51.984;20.956;2022-12-16T06:36:12;-3.13;85.50
65598;SHT31;52267;51.984;20.956;2022-12-16T06:38:58;-3.13;85.49
65598;SHT31;52267;51.984;20.956;2022-12-16T06:41:44;-3.13;85.50
65598;SHT31;52267;51.984;20.956;2022-12-16T06:44:30;-3.13;85.54
65598;SHT31;52267;51.984;20.956;2022-12-16T06:47:15;-3.12;85.57
65598;SHT31;52267;51.984;20.956;2022-12-16T06:50:01;-3.06;85.49
65598;SHT31;52267;51.984;20.956;2022-12-16T06:52:47;-3.07;85.50
65598;SHT31;52267;51.984;20.956;2022-12-16T06:55:32;-3.05;85.50
65598;SHT31;52267;51.984;20.956;2022-12-16T06:58:18;-3.04;85.50
65598;SHT31;52267;51.984;20.956;2022-12-16T07:01:04;-3.01;85.50
65598;SHT31;52267;51.984;20.956;2022-12-16T07:03:50;-3.00;85.50
65598;SHT31;52267;51.984;20.956;2022-12-16T07:06:35;-3.00;85.50
65598;SHT31;52267;51.984;20.956;2022-12-16T07:09:21;-2.98;85.56
65598;SHT31;52267;51.984;20.956;2022-12-16T07:12:07;-2.92;85.52
65598;SHT31;52267;51.984;20.956;2022-12-16T07:14:52;-2.94;85.50
65598;SHT31;52267;51.984;20.956;2022-12-16T07:17:38;-2.87;85.51
65598;SHT31;52267;51.984;20.956;2022-12-16T07:20:24;-2.81;85.44
65598;SHT31;52267;51.984;20.956;2022-12-16T07:23:10;-2.83;85.37
65598;SHT31;52267;51.984;20.956;2022-12-16T07:25:56;-2.85;85.47
65598;SHT31;52267;51.984;20.956;2022-12-16T07:28:42;-2.79;85.48
65598;SHT31;52267;51.984;20.956;2022-12-16T07:31:28;-2.79;85.40
65598;SHT31;52267;51.984;20.956;2022-12-16T07:34:13;-2.80;85.51
65598;SHT31;52267;51.984;20.956;2022-12-16T07:36:59;-2.77;85.58
65598;SHT31;52267;51.984;20.956;2022-12-16T07:39:44;-2.72;85.50
65598;SHT31;52267;51.984;20.956;2022-12-16T07:42:30;-2.68;85.40
65598;SHT31;52267;51.984;20.956;2022-12-16T07:45:16;-2.71;85.40
65598;SHT31;52267;51.984;20.956;2022-12-16T07:48:02;-2.74;85.43
65598;SHT31;52267;51.984;20.956;2022-12-16T07:50:47;-2.74;85.50
65598;SHT31;52267;51.984;20.956;2022-12-16T07:53:33;-2.72;85.50
65598;SHT31;52267;51.984;20.956;2022-12-16T07:56:19;-2.67;85.43
65598;SHT31;52267;51.984;20.956;2022-12-16T07:59:04;-2.68;85.40
65598;SHT31;52267;51.984;20.956;2022-12-16T08:01:50;-2.68;85.41
65598;SHT31;52267;51.984;20.956;2022-12-16T08:04:35;-2.67;85.41
65598;SHT31;52267;51.984;20.956;2022-12-16T08:07:21;-2.72;85.41
65598;SHT31;52267;51.984;20.956;2022-12-16T08:10:07;-2.72;85.50
65598;SHT31;52267;51.984;20.956;2022-12-16T08:12:59;-2.67;85.50
65598;SHT31;52267;51.984;20.956;2022-12-16T08:15:46;-2.70;85.43
65598;SHT31;52267;51.984;20.956;2022-12-16T08:18:32;-2.71;85.50
65598;SHT31;52267;51.984;20.956;2022-12-16T08:21:18;-2.70;85.46
65598;SHT31;52267;51.984;20.956;2022-12-16T08:24:03;-2.70;85.56
65598;SHT31;52267;51.984;20.956;2022-12-16T08:26:50;-2.62;85.44
65598;SHT31;52267;51.984;20.956;2022-12-16T08:29:35;-2.57;85.37
65598;SHT31;52267;51.984;20.956;2022-12-16T08:32:21;-2.55;85.36
65598;SHT31;52267;51.984;20.956;2022-12-16T08:35:06;-2.58;85.32
65598;SHT31;52267;51.984;20.956;2022-12-16T08:37:55;-2.56;85.38
65598;SHT31;52267;51.984;20.956;2022-12-16T08:40:43;-2.55;85.40
65598;SHT31;52267;51.984;20.956;2022-12-16T08:43:32;-2.56;85.39
65598;SHT31;52267;51.984;20.956;2022-12-16T08:46:20;-2.53;85.40
65598;SHT31;52267;51.984;20.956;2022-12-16T08:49:05;-2.49;85.40
65598;SHT31;52267;51.984;20.956;2022-12-16T08:51:51;-2.47;85.37
65598;SHT31;52267;51.984;20.956;2022-12-16T08:54:37;-2.45;85.33
65598;SHT31;52267;51.984;20.956;2022-12-16T08:57:22;-2.45;85.31
65598;SHT31;52267;51.984;20.956;2022-12-16T09:00:08;-2.42;85.34
65598;SHT31;52267;51.984;20.956;2022-12-16T09:02:55;-2.42;85.28
65598;SHT31;52267;51.984;20.956;2022-12-16T09:05:42;-2.42;85.30
65598;SHT31;52267;51.984;20.956;2022-12-16T09:08:29;-2.39;85.35
65598;SHT31;52267;51.984;20.956;2022-12-16T09:11:15;-2.28;85.34
65598;SHT31;52267;51.984;20.956;2022-12-16T09:14:00;-2.18;85.16
65598;SHT31;52267;51.984;20.956;2022-12-16T09:16:46;-2.12;85.11
65598;SHT31;52267;51.984;20.956;2022-12-16T09:19:32;-2.01;85.06
65598;SHT31;52267;51.984;20.956;2022-12-16T09:22:18;-1.93;84.97
65598;SHT31;52267;51.984;20.956;2022-12-16T09:25:04;-1.91;84.90
65598;SHT31;52267;51.984;20.956;2022-12-16T09:27:49;-1.83;84.87
65598;SHT31;52267;51.984;20.956;2022-12-16T09:30:35;-1.83;84.80
65598;SHT31;52267;51.984;20.956;2022-12-16T09:33:20;-1.84;84.84
65598;SHT31;52267;51.984;20.956;2022-12-16T09:36:06;-1.90;84.70
65598;SHT31;52267;51.984;20.956;2022-12-16T09:38:52;-1.97;84.82
65598;SHT31;52267;51.984;20.956;2022-12-16T09:41:40;-2.00;84.89
65598;SHT31;52267;51.984;20.956;2022-12-16T09:48:04;-2.02;84.96
65598;SHT31;52267;51.984;20.956;2022-12-16T09:50:57;-2.05;85.01
65598;SHT31;52267;51.984;20.956;2022-12-16T09:53:47;-2.09;85.10
65598;SHT31;52267;51.984;20.956;2022-12-16T09:56:36;-2.09;85.13
65598;SHT31;52267;51.984;20.956;2022-12-16T09:59:27;-2.11;85.15
65598;SHT31;52267;51.984;20.956;2022-12-16T10:02:18;-2.15;85.21
65598;SHT31;52267;51.984;20.956;2022-12-16T10:05:12;-2.14;85.30
65598;SHT31;52267;51.984;20.956;2022-12-16T10:11:13;-2.12;85.40
65598;SHT31;52267;51.984;20.956;2022-12-16T10:14:12;-2.07;85.41
65598;SHT31;52267;51.984;20.956;2022-12-16T10:17:11;-1.99;85.39
65598;SHT31;52267;51.984;20.956;2022-12-16T10:23:29;-1.83;85.19
65598;SHT31;52267;51.984;20.956;2022-12-16T10:27:12;-1.75;85.17
65598;SHT31;52267;51.984;20.956;2022-12-16T10:30:01;-1.73;85.16
65598;SHT31;52267;51.984;20.956;2022-12-16T10:32:55;-1.65;85.17
65598;SHT31;52267;51.984;20.956;2022-12-16T10:35:46;-1.61;85.08
65598;SHT31;52267;51.984;20.956;2022-12-16T10:38:52;-1.61;85.10
65598;SHT31;52267;51.984;20.956;2022-12-16T10:41:44;-1.60;85.10
65598;SHT31;52267;51.984;20.956;2022-12-16T10:47:34;-1.47;84.97
65598;SHT31;52267;51.984;20.956;2022-12-16T10:50:19;-1.50;84.96
65598;SHT31;52267;51.984;20.956;2022-12-16T10:53:10;-1.44;85.03
65598;SHT31;52267;51.984;20.956;2022-12-16T10:59:35;-1.43;85.00
65598;SHT31;52267;51.984;20.956;2022-12-16T11:02:24;-1.39;85.02
65598;SHT31;52267;51.984;20.956;2022-12-16T11:05:22;-1.38;85.01
65598;SHT31;52267;51.984;20.956;2022-12-16T11:11:20;-1.38;85.17
65598;SHT31;52267;51.984;20.956;2022-12-16T11:17:14;-1.23;85.13
65598;SHT31;52267;51.984;20.956;2022-12-16T11:26:34;-1.19;85.23
65598;SHT31;52267;51.984;20.956;2022-12-16T11:35:23;-0.99;85.18
65598;SHT31;52267;51.984;20.956;2022-12-16T11:38:20;-0.93;85.06
65598;SHT31;52267;51.984;20.956;2022-12-16T11:41:38;-0.89;84.97
65598;SHT31;52267;51.984;20.956;2022-12-16T11:44:42;-0.87;84.93
65598;SHT31;52267;51.984;20.956;2022-12-16T11:50:56;-0.90;84.91
65598;SHT31;52267;51.984;20.956;2022-12-16T11:53:45;-0.94;85.00
65598;SHT31;52267;51.984;20.956;2022-12-16T11:56:36;-0.90;84.99
65598;SHT31;52267;51.984;20.956;2022-12-16T12:02:39;-0.82;84.91
65598;SHT31;52267;51.984;20.956;2022-12-16T12:05:37;-0.81;84.92
65598;SHT31;52267;51.984;20.956;2022-12-16T12:15:19;-0.81;85.01
65598;SHT31;52267;51.984;20.956;2022-12-16T12:18:31;-0.77;85.01
65598;SHT31;52267;51.984;20.956;2022-12-16T12:24:52;-0.89;85.23
65598;SHT31;52267;51.984;20.956;2022-12-16T12:27:52;-0.88;85.30
65598;SHT31;52267;51.984;20.956;2022-12-16T12:31:33;-0.86;85.38
65598;SHT31;52267;51.984;20.956;2022-12-16T12:35:35;-0.84;85.46
65598;SHT31;52267;51.984;20.956;2022-12-16T12:38:18;-0.80;85.46
65598;SHT31;52267;51.984;20.956;2022-12-16T12:41:18;-0.77;85.37
65598;SHT31;52267;51.984;20.956;2022-12-16T12:47:33;-0.86;85.63
65598;SHT31;52267;51.984;20.956;2022-12-16T12:50:27;-0.89;85.70
65598;SHT31;52267;51.984;20.956;2022-12-16T12:54:08;-0.95;85.69
65598;SHT31;52267;51.984;20.956;2022-12-16T12:56:51;-0.96;85.80
65598;SHT31;52267;51.984;20.956;2022-12-16T12:59:57;-0.96;85.69
65598;SHT31;52267;51.984;20.956;2022-12-16T13:05:59;-1.07;85.72
65598;SHT31;52267;51.984;20.956;2022-12-16T13:11:37;-1.10;85.80
65598;SHT31;52267;51.984;20.956;2022-12-16T13:20:43;-1.15;85.80
65598;SHT31;52267;51.984;20.956;2022-12-16T13:23:36;-1.16;85.86
65598;SHT31;52267;51.984;20.956;2022-12-16T13:26:25;-1.15;85.90
65598;SHT31;52267;51.984;20.956;2022-12-16T13:35:03;-1.03;85.80
65598;SHT31;52267;51.984;20.956;2022-12-16T13:38:02;-1.03;85.79
65598;SHT31;52267;51.984;20.956;2022-12-16T13:44:10;-0.97;85.79
65598;SHT31;52267;51.984;20.956;2022-12-16T13:46:57;-0.96;85.74
65598;SHT31;52267;51.984;20.956;2022-12-16T13:49:49;-0.99;85.70
65598;SHT31;52267;51.984;20.956;2022-12-16T13:58:42;-1.07;85.83
65598;SHT31;52267;51.984;20.956;2022-12-16T14:04:39;-1.09;85.76
65598;SHT31;52267;51.984;20.956;2022-12-16T14:07:34;-1.09;85.80
65598;SHT31;52267;51.984;20.956;2022-12-16T14:10:24;-1.10;85.80
65598;SHT31;52267;51.984;20.956;2022-12-16T14:13:18;-1.13;85.80
65598;SHT31;52267;51.984;20.956;2022-12-16T14:23:20;-1.20;85.80
65598;SHT31;52267;51.984;20.956;2022-12-16T14:26:28;-1.20;85.88
65598;SHT31;52267;51.984;20.956;2022-12-16T14:29:19;-1.21;85.93
65598;SHT31;52267;51.984;20.956;2022-12-16T14:35:17;-1.22;85.90
65598;SHT31;52267;51.984;20.956;2022-12-16T14:38:25;-1.22;85.94
65598;SHT31;52267;51.984;20.956;2022-12-16T14:41:18;-1.21;85.93
65598;SHT31;52267;51.984;20.956;2022-12-16T14:44:22;-1.23;85.98
65598;SHT31;52267;51.984;20.956;2022-12-16T14:47:16;-1.23;85.97
65598;SHT31;52267;51.984;20.956;2022-12-16T14:50:16;-1.22;85.90
65598;SHT31;52267;51.984;20.956;2022-12-16T14:59:14;-1.28;85.88
65598;SHT31;52267;51.984;20.956;2022-12-16T15:02:25;-1.29;85.88
65598;SHT31;52267;51.984;20.956;2022-12-16T15:05:15;-1.30;85.83
65598;SHT31;52267;51.984;20.956;2022-12-16T15:08:02;-1.32;85.89
65598;SHT31;52267;51.984;20.956;2022-12-16T15:10:48;-1.33;85.90
65598;SHT31;52267;51.984;20.956;2022-12-16T15:13:33;-1.36;85.89
65598;SHT31;52267;51.984;20.956;2022-12-16T15:16:22;-1.39;85.91
65598;SHT31;52267;51.984;20.956;2022-12-16T15:19:27;-1.38;85.90
65598;SHT31;52267;51.984;20.956;2022-12-16T15:22:20;-1.36;85.90
65598;SHT31;52267;51.984;20.956;2022-12-16T15:25:15;-1.39;85.86
65598;SHT31;52267;51.984;20.956;2022-12-16T15:28:20;-1.43;85.90
65598;SHT31;52267;51.984;20.956;2022-12-16T15:31:23;-1.49;85.96
65598;SHT31;52267;51.984;20.956;2022-12-16T15:37:12;-1.52;85.91
65598;SHT31;52267;51.984;20.956;2022-12-16T15:40:20;-1.56;85.91
65598;SHT31;52267;51.984;20.956;2022-12-16T15:46:20;-1.58;85.95
65598;SHT31;52267;51.984;20.956;2022-12-16T15:55:24;-1.62;86.00
65598;SHT31;52267;51.984;20.956;2022-12-16T16:01:25;-1.63;86.00
65598;SHT31;52267;51.984;20.956;2022-12-16T16:04:20;-1.62;85.93
65598;SHT31;52267;51.984;20.956;2022-12-16T16:10:15;-1.65;85.92
65598;SHT31;52267;51.984;20.956;2022-12-16T16:13:07;-1.66;85.92
65598;SHT31;52267;51.984;20.956;2022-12-16T16:15:54;-1.64;85.91
65598;SHT31;52267;51.984;20.956;2022-12-16T16:18:40;-1.66;85.95
65598;SHT31;52267;51.984;20.956;2022-12-16T16:21:28;-1.66;85.97
65598;SHT31;52267;51.984;20.956;2022-12-16T16:24:31;-1.66;86.00
65598;SHT31;52267;51.984;20.956;2022-12-16T16:27:20;-1.69;86.04
65598;SHT31;52267;51.984;20.956;2022-12-16T16:30:08;-1.70;86.00
65598;SHT31;52267;51.984;20.956;2022-12-16T16:32:54;-1.73;86.03
65598;SHT31;52267;51.984;20.956;2022-12-16T16:35:40;-1.74;86.02
65598;SHT31;52267;51.984;20.956;2022-12-16T16:38:26;-1.74;86.01
65598;SHT31;52267;51.984;20.956;2022-12-16T16:41:12;-1.72;86.00
65598;SHT31;52267;51.984;20.956;2022-12-16T16:44:00;-1.74;86.04
65598;SHT31;52267;51.984;20.956;2022-12-16T16:46:47;-1.73;86.03
65598;SHT31;52267;51.984;20.956;2022-12-16T16:49:44;-1.72;86.00
65598;SHT31;52267;51.984;20.956;2022-12-16T16:52:31;-1.72;86.00
65598;SHT31;52267;51.984;20.956;2022-12-16T16:55:18;-1.73;86.04
65598;SHT31;52267;51.984;20.956;2022-12-16T16:58:07;-1.73;86.04
65598;SHT31;52267;51.984;20.956;2022-12-16T17:00:58;-1.73;86.01
65598;SHT31;52267;51.984;20.956;2022-12-16T17:03:44;-1.74;86.01
65598;SHT31;52267;51.984;20.956;2022-12-16T17:06:30;-1.75;86.00
65598;SHT31;52267;51.984;20.956;2022-12-16T17:09:16;-1.76;86.00
65598;SHT31;52267;51.984;20.956;2022-12-16T17:12:08;-1.78;86.00
65598;SHT31;52267;51.984;20.956;2022-12-16T17:15:19;-1.81;86.01
65598;SHT31;52267;51.984;20.956;2022-12-16T17:18:13;-1.81;86.00
65598;SHT31;52267;51.984;20.956;2022-12-16T17:20:59;-1.81;85.94
65598;SHT31;52267;51.984;20.956;2022-12-16T17:23:44;-1.80;85.96
65598;SHT31;52267;51.984;20.956;2022-12-16T17:26:30;-1.81;85.92
65598;SHT31;52267;51.984;20.956;2022-12-16T17:29:18;-1.81;85.92
65598;SHT31;52267;51.984;20.956;2022-12-16T17:32:06;-1.84;85.91
65598;SHT31;52267;51.984;20.956;2022-12-16T17:34:53;-1.86;85.98
65598;SHT31;52267;51.984;20.956;2022-12-16T17:37:38;-1.83;85.92
65598;SHT31;52267;51.984;20.956;2022-12-16T17:40:23;-1.85;85.90
65598;SHT31;52267;51.984;20.956;2022-12-16T17:43:09;-1.88;85.94
65598;SHT31;52267;51.984;20.956;2022-12-16T17:45:56;-1.88;85.98
65598;SHT31;52267;51.984;20.956;2022-12-16T17:48:43;-1.89;86.00
65598;SHT31;52267;51.984;20.956;2022-12-16T17:51:29;-1.90;85.95
65598;SHT31;52267;51.984;20.956;2022-12-16T17:54:15;-1.91;86.00
65598;SHT31;52267;51.984;20.956;2022-12-16T17:57:01;-1.88;85.97
65598;SHT31;52267;51.984;20.956;2022-12-16T17:59:47;-1.87;85.90
65598;SHT31;52267;51.984;20.956;2022-12-16T18:02:32;-1.89;85.90
65598;SHT31;52267;51.984;20.956;2022-12-16T18:05:18;-1.89;85.90
65598;SHT31;52267;51.984;20.956;2022-12-16T18:08:05;-1.85;85.88
65598;SHT31;52267;51.984;20.956;2022-12-16T18:10:54;-1.86;85.83
65598;SHT31;52267;51.984;20.956;2022-12-16T18:13:42;-1.90;85.90
65598;SHT31;52267;51.984;20.956;2022-12-16T18:16:28;-1.92;85.89
65598;SHT31;52267;51.984;20.956;2022-12-16T18:19:14;-1.88;85.87
65598;SHT31;52267;51.984;20.956;2022-12-16T18:22:01;-1.89;85.81
65598;SHT31;52267;51.984;20.956;2022-12-16T18:24:48;-1.92;85.90
65598;SHT31;52267;51.984;20.956;2022-12-16T18:27:34;-1.91;85.85
65598;SHT31;52267;51.984;20.956;2022-12-16T18:30:21;-1.90;85.84
65598;SHT31;52267;51.984;20.956;2022-12-16T18:33:07;-1.89;85.82
65598;SHT31;52267;51.984;20.956;2022-12-16T18:35:53;-1.87;85.80
65598;SHT31;52267;51.984;20.956;2022-12-16T18:38:39;-1.87;85.80
65598;SHT31;52267;51.984;20.956;2022-12-16T18:41:25;-1.86;85.72
65598;SHT31;52267;51.984;20.956;2022-12-16T18:44:12;-1.87;85.70
65598;SHT31;52267;51.984;20.956;2022-12-16T18:46:58;-1.90;85.75
65598;SHT31;52267;51.984;20.956;2022-12-16T18:49:44;-1.89;85.79
65598;SHT31;52267;51.984;20.956;2022-12-16T18:52:30;-1.88;85.74
65598;SHT31;52267;51.984;20.956;2022-12-16T18:55:17;-1.88;85.70
65598;SHT31;52267;51.984;20.956;2022-12-16T18:58:04;-1.89;85.70
65598;SHT31;52267;51.984;20.956;2022-12-16T19:00:49;-1.90;85.70
65598;SHT31;52267;51.984;20.956;2022-12-16T19:03:35;-1.93;85.75
65598;SHT31;52267;51.984;20.956;2022-12-16T19:06:21;-1.90;85.73
65598;SHT31;52267;51.984;20.956;2022-12-16T19:09:06;-1.89;85.70
65598;SHT31;52267;51.984;20.956;2022-12-16T19:11:52;-1.89;85.70
65598;SHT31;52267;51.984;20.956;2022-12-16T19:14:38;-1.89;85.69
65598;SHT31;52267;51.984;20.956;2022-12-16T19:17:24;-1.89;85.64
65598;SHT31;52267;51.984;20.956;2022-12-16T19:20:10;-1.90;85.70
65598;SHT31;52267;51.984;20.956;2022-12-16T19:22:56;-1.91;85.69
65598;SHT31;52267;51.984;20.956;2022-12-16T19:25:42;-1.92;85.69
65598;SHT31;52267;51.984;20.956;2022-12-16T19:28:28;-1.92;85.67
65598;SHT31;52267;51.984;20.956;2022-12-16T19:31:16;-1.92;85.62
65598;SHT31;52267;51.984;20.956;2022-12-16T19:34:02;-1.92;85.63